Weather at Texel Airfield

Public forecast

Using degrees Celsius for public forecast. Weather courtesy of forecast.io.

Closest aviation weather report (METAR) to Texel Airfield

Closest report is De Kooy Airport, 11.7 nm (21.6 km) S. Retrieved 2021/04/20 16:55 UTC (23 minutes ago):

EHKD 201655Z AUTO 02007KT 340V050 9999 NCD 13/06 Q1017 BLU NOSIG

Closest aviation forecast (TAF) to Texel Airfield

Closest forecast is De Kooy Airport, 11.7 nm (21.6 km) S. Retrieved 2021/04/20 13:06 UTC (4 hours ago):

TAF EHKD 201243Z 2013/2101 01006KT CAVOK PROB30 2021/2101 3000 BR MIFG